Time;durP1;ratioP1;P1;durP2;ratioP2;P2;SDS_P1;SDS_P2;PMS_P1;PMS_P2;Temp;Humidity;BMP_temperature;BMP_pressure;BME280_temperature;BME280_humidity;BME280_pressure;Samples;Min_cycle;Max_cycle;Signal;HPM_P1;HPM_P2
2022/03/03 00:00:19;;;;;;;80.47;32.28;;;5.70;99.90;;;;;;5016440;28;20062;-63
2022/03/03 00:02:47;;;;;;;86.97;34.60;;;5.60;99.90;;;;;;5033632;28;20049;-65
2022/03/03 00:05:15;;;;;;;90.95;36.33;;;5.70;99.90;;;;;;5061474;28;20392;-66
2022/03/03 00:07:43;;;;;;;66.20;28.45;;;5.60;99.90;;;;;;5052002;28;20056;-67
2022/03/03 00:10:11;;;;;;;84.47;35.33;;;5.60;99.90;;;;;;5043073;28;20499;-65
2022/03/03 00:12:39;;;;;;;82.47;33.22;;;5.70;99.90;;;;;;5013361;28;20370;-63
2022/03/03 00:15:07;;;;;;;85.00;34.03;;;5.70;99.90;;;;;;5053546;28;20045;-64
2022/03/03 00:17:37;;;;;;;78.53;34.53;;;5.60;99.90;;;;;;5047812;28;20048;-61
2022/03/03 00:20:05;;;;;;;86.75;32.80;;;5.60;99.90;;;;;;5032646;28;20057;-61
2022/03/03 00:22:33;;;;;;;84.00;34.33;;;5.70;99.90;;;;;;5047024;28;20050;-61
2022/03/03 00:25:01;;;;;;;77.10;32.05;;;5.70;99.90;;;;;;5051659;28;20052;-64
2022/03/03 00:27:32;;;;;;;69.30;30.13;;;5.70;99.90;;;;;;5034441;28;20057;-62
2022/03/03 00:30:00;;;;;;;67.45;30.25;;;5.60;99.90;;;;;;5047420;28;20056;-61
2022/03/03 00:32:28;;;;;;;66.85;28.65;;;5.60;99.90;;;;;;5029847;28;20048;-61
2022/03/03 00:34:56;;;;;;;75.70;30.95;;;5.60;99.90;;;;;;5040278;28;20063;-61
2022/03/03 00:37:24;;;;;;;71.38;31.73;;;5.60;99.90;;;;;;5031625;28;20389;-63
2022/03/03 00:39:52;;;;;;;71.03;28.95;;;5.70;99.90;;;;;;5024280;28;20057;-61
2022/03/03 00:42:19;;;;;;;74.30;30.77;;;5.60;99.90;;;;;;5029256;28;20397;-61
2022/03/03 00:44:47;;;;;;;72.78;31.52;;;5.60;99.90;;;;;;5062541;28;20055;-64
2022/03/03 00:47:15;;;;;;;67.40;29.48;;;5.90;99.90;;;;;;5048583;28;20049;-66
2022/03/03 00:49:42;;;;;;;74.32;31.88;;;5.60;99.90;;;;;;5038424;28;20488;-70
2022/03/03 00:52:10;;;;;;;71.38;29.33;;;5.60;99.90;;;;;;5029227;28;20049;-69
2022/03/03 00:54:38;;;;;;;65.63;29.20;;;5.60;99.90;;;;;;5060465;28;20052;-70
2022/03/03 00:57:06;;;;;;;66.90;30.23;;;5.70;99.90;;;;;;5057402;28;20052;-68
2022/03/03 00:59:33;;;;;;;73.10;28.98;;;5.60;99.90;;;;;;5041636;28;20053;-69
2022/03/03 01:02:01;;;;;;;70.10;29.25;;;5.60;99.90;;;;;;5035975;28;20042;-68
2022/03/03 01:04:29;;;;;;;69.80;29.30;;;5.70;99.90;;;;;;5042359;28;20060;-68
2022/03/03 01:06:57;;;;;;;73.05;30.80;;;5.70;99.90;;;;;;5031759;28;20045;-67
2022/03/03 01:09:24;;;;;;;66.70;29.92;;;5.70;99.90;;;;;;5058112;28;20052;-67
2022/03/03 01:11:52;;;;;;;77.43;31.65;;;5.70;99.90;;;;;;5055904;28;20041;-68
2022/03/03 01:14:22;;;;;;;68.45;30.38;;;5.70;99.90;;;;;;5053442;28;20477;-69
2022/03/03 01:16:50;;;;;;;72.75;29.67;;;5.70;99.90;;;;;;5043301;28;20052;-67
2022/03/03 01:19:18;;;;;;;70.18;29.08;;;5.70;99.90;;;;;;5032212;28;20075;-66
2022/03/03 01:21:46;;;;;;;66.60;27.42;;;5.70;99.90;;;;;;5042898;28;20403;-63
2022/03/03 01:24:14;;;;;;;68.70;27.65;;;5.70;99.90;;;;;;5060401;28;20044;-64
2022/03/03 01:26:42;;;;;;;66.45;30.20;;;5.20;99.90;;;;;;5068376;28;20048;-61
2022/03/03 01:29:10;;;;;;;68.72;28.35;;;5.70;99.90;;;;;;5043274;28;20060;-61
2022/03/03 01:31:38;;;;;;;67.88;28.52;;;5.70;99.90;;;;;;5031220;28;20361;-64
2022/03/03 01:34:09;;;;;;;70.97;28.65;;;5.60;99.90;;;;;;5024246;28;20036;-68
2022/03/03 01:36:37;;;;;;;63.33;27.65;;;5.70;99.90;;;;;;5027923;28;20045;-61
2022/03/03 01:39:06;;;;;;;71.32;28.17;;;5.70;99.90;;;;;;5030981;28;20042;-62
2022/03/03 01:41:34;;;;;;;62.60;27.40;;;5.70;99.90;;;;;;5039857;28;20481;-61
2022/03/03 01:44:03;;;;;;;66.88;27.15;;;5.60;99.90;;;;;;5049418;28;20051;-61
2022/03/03 01:46:31;;;;;;;67.65;27.80;;;5.60;99.90;;;;;;5067422;28;20078;-62
2022/03/03 01:48:59;;;;;;;70.32;28.60;;;5.70;99.90;;;;;;5047675;28;20060;-62
2022/03/03 01:51:27;;;;;;;75.35;30.27;;;5.60;99.90;;;;;;5030300;28;20076;-61
2022/03/03 01:53:54;;;;;;;68.43;29.40;;;5.60;99.90;;;;;;5048968;28;20044;-62
2022/03/03 01:56:22;;;;;;;70.60;29.83;;;5.60;99.90;;;;;;5032378;28;20049;-62
2022/03/03 01:58:50;;;;;;;70.00;30.13;;;5.70;99.90;;;;;;5032547;28;20048;-61
2022/03/03 02:01:18;;;;;;;74.50;29.98;;;5.60;99.90;;;;;;5028816;28;20061;-62
2022/03/03 02:03:46;;;;;;;74.65;30.95;;;5.60;99.90;;;;;;5046631;28;20468;-61
2022/03/03 02:06:13;;;;;;;71.47;29.25;;;5.60;99.90;;;;;;5047740;28;20060;-61
2022/03/03 02:08:41;;;;;;;71.70;30.35;;;5.60;99.90;;;;;;5047130;28;20045;-61
2022/03/03 02:11:10;;;;;;;64.20;27.95;;;5.60;99.90;;;;;;5034849;28;20413;-61
2022/03/03 02:13:38;;;;;;;68.65;28.27;;;5.60;99.90;;;;;;5041218;28;20052;-61
2022/03/03 02:16:08;;;;;;;61.33;26.75;;;5.60;99.90;;;;;;5067910;28;20045;-63
2022/03/03 02:18:42;;;;;;;71.65;30.17;;;5.70;99.90;;;;;;5052655;28;20041;-63
2022/03/03 02:21:15;;;;;;;73.20;29.83;;;5.60;99.90;;;;;;5052219;28;20045;-62
2022/03/03 02:23:43;;;;;;;71.45;29.52;;;5.60;99.90;;;;;;5054719;28;20478;-62
2022/03/03 02:26:30;;;;;;;74.72;28.85;;;5.60;99.90;;;;;;5057433;28;20559;-62
2022/03/03 02:28:58;;;;;;;69.20;27.20;;;5.60;99.90;;;;;;5055548;28;20503;-63
2022/03/03 02:31:26;;;;;;;67.25;28.70;;;5.60;99.90;;;;;;5034682;28;20065;-61
2022/03/03 02:33:54;;;;;;;71.85;28.98;;;5.60;99.90;;;;;;5035205;28;20405;-64
2022/03/03 02:36:25;;;;;;;71.25;29.55;;;5.60;99.90;;;;;;5031070;28;20037;-63
2022/03/03 02:38:58;;;;;;;80.35;29.35;;;5.60;99.90;;;;;;5044939;28;20057;-62
2022/03/03 02:41:27;;;;;;;72.57;30.20;;;5.60;99.90;;;;;;5043368;28;20503;-62
2022/03/03 02:43:56;;;;;;;70.50;29.73;;;5.60;99.90;;;;;;5038917;28;20116;-63
2022/03/03 02:46:23;;;;;;;76.85;30.55;;;5.60;99.90;;;;;;5019178;28;20045;-61
2022/03/03 02:48:51;;;;;;;76.97;30.75;;;5.60;99.90;;;;;;5015570;28;20049;-64
2022/03/03 02:51:19;;;;;;;74.07;31.27;;;5.60;99.90;;;;;;5051244;28;20060;-62
2022/03/03 02:53:47;;;;;;;71.18;28.98;;;5.70;99.90;;;;;;5054517;28;20416;-61
2022/03/03 02:56:15;;;;;;;73.82;32.70;;;5.70;99.90;;;;;;5052438;28;20476;-62
2022/03/03 02:58:43;;;;;;;71.55;30.60;;;5.70;99.90;;;;;;5045351;28;20049;-61
2022/03/03 03:01:11;;;;;;;83.28;31.85;;;5.70;99.90;;;;;;5034533;28;20053;-61
2022/03/03 03:03:39;;;;;;;75.82;30.38;;;5.70;99.90;;;;;;5052050;28;20045;-63
2022/03/03 03:06:07;;;;;;;74.93;30.90;;;5.70;99.90;;;;;;5049598;28;20515;-67
2022/03/03 03:08:35;;;;;;;78.85;31.85;;;5.70;99.90;;;;;;5050421;28;20041;-68
2022/03/03 03:11:03;;;;;;;79.25;32.15;;;5.70;99.90;;;;;;5052243;28;20041;-66
2022/03/03 03:13:30;;;;;;;72.80;30.30;;;5.70;99.90;;;;;;5049695;28;20048;-66
2022/03/03 03:15:58;;;;;;;78.63;32.30;;;5.70;99.90;;;;;;5019311;28;20041;-67
2022/03/03 03:18:26;;;;;;;78.32;30.63;;;5.70;99.90;;;;;;5052498;28;20044;-64
2022/03/03 03:20:54;;;;;;;79.78;32.78;;;5.70;99.90;;;;;;5049307;28;20049;-66
2022/03/03 03:23:23;;;;;;;77.05;32.95;;;5.70;99.90;;;;;;5043820;28;20046;-68
2022/03/03 03:25:51;;;;;;;83.43;32.95;;;5.70;99.90;;;;;;5019733;28;20091;-62
2022/03/03 03:28:20;;;;;;;75.72;33.72;;;5.70;99.90;;;;;;5037822;28;20057;-63
2022/03/03 03:30:48;;;;;;;75.13;31.90;;;5.70;99.90;;;;;;5051573;28;20058;-68
2022/03/03 03:33:15;;;;;;;88.30;33.40;;;5.70;99.90;;;;;;5042465;28;20045;-66
2022/03/03 03:35:43;;;;;;;83.03;34.30;;;5.70;99.90;;;;;;5050613;28;20045;-68
2022/03/03 03:38:11;;;;;;;84.00;32.78;;;5.70;99.90;;;;;;5038033;28;20047;-67
2022/03/03 03:40:39;;;;;;;82.32;34.97;;;5.70;99.90;;;;;;5041136;28;20473;-65
2022/03/03 03:43:07;;;;;;;74.57;30.27;;;5.70;99.90;;;;;;5046074;28;20197;-64
2022/03/03 03:45:35;;;;;;;80.18;33.63;;;5.70;99.90;;;;;;5049387;28;20049;-63
2022/03/03 03:48:03;;;;;;;91.17;34.43;;;5.70;99.90;;;;;;5054267;28;20056;-63
2022/03/03 03:50:32;;;;;;;82.75;35.88;;;5.70;99.90;;;;;;5051860;28;20048;-62
2022/03/03 03:53:02;;;;;;;85.53;35.28;;;5.70;99.90;;;;;;5064153;28;20052;-61
2022/03/03 03:55:30;;;;;;;85.43;36.30;;;5.70;99.90;;;;;;5049021;28;20045;-65
2022/03/03 03:57:57;;;;;;;90.85;35.38;;;5.70;99.90;;;;;;5053094;28;20200;-64
2022/03/03 04:00:25;;;;;;;84.43;34.33;;;5.70;99.90;;;;;;5052458;28;20045;-64
2022/03/03 04:02:52;;;;;;;89.65;34.97;;;5.70;99.90;;;;;;5053131;28;20053;-63
2022/03/03 04:05:21;;;;;;;95.82;35.28;;;5.70;99.90;;;;;;5051585;28;20516;-63
2022/03/03 04:07:48;;;;;;;93.72;36.53;;;5.70;99.90;;;;;;5035433;28;20041;-65
2022/03/03 04:10:16;;;;;;;87.43;36.05;;;5.70;99.90;;;;;;5018484;28;20057;-63
2022/03/03 04:12:44;;;;;;;97.65;36.92;;;5.70;99.90;;;;;;5033159;28;20049;-63
2022/03/03 04:15:12;;;;;;;101.78;37.65;;;5.60;99.90;;;;;;5033072;28;20045;-61
2022/03/03 04:17:40;;;;;;;94.25;36.92;;;5.70;99.90;;;;;;5033249;28;20050;-64
2022/03/03 04:20:09;;;;;;;101.07;38.80;;;5.70;99.90;;;;;;5043695;28;20588;-64
2022/03/03 04:22:37;;;;;;;97.13;38.00;;;5.60;99.90;;;;;;5052607;28;20041;-63
2022/03/03 04:25:05;;;;;;;109.32;38.60;;;5.70;99.90;;;;;;5034762;28;20060;-63
2022/03/03 04:27:33;;;;;;;101.00;38.67;;;5.60;99.90;;;;;;5050848;28;20625;-65
2022/03/03 04:30:01;;;;;;;108.05;38.80;;;5.60;99.90;;;;;;5051828;28;20448;-63
2022/03/03 04:32:29;;;;;;;100.20;39.75;;;5.60;99.90;;;;;;5052188;28;20052;-62
2022/03/03 04:34:57;;;;;;;86.03;38.38;;;5.60;99.90;;;;;;5039398;28;20642;-63
2022/03/03 04:37:25;;;;;;;100.63;40.22;;;5.60;99.90;;;;;;5051059;28;20048;-63
2022/03/03 04:39:53;;;;;;;104.78;38.45;;;5.60;99.90;;;;;;5050691;28;20048;-63
2022/03/03 04:42:20;;;;;;;106.75;39.60;;;5.60;99.90;;;;;;5052509;28;20480;-62
2022/03/03 04:44:48;;;;;;;113.10;42.10;;;5.60;99.90;;;;;;5052303;28;20052;-62
2022/03/03 04:47:16;;;;;;;112.03;40.47;;;5.60;99.90;;;;;;5052286;28;20484;-62
2022/03/03 04:49:44;;;;;;;113.45;40.92;;;5.60;99.90;;;;;;5052453;28;20044;-63
2022/03/03 04:52:12;;;;;;;126.13;42.53;;;5.60;99.90;;;;;;5032715;28;20108;-63
2022/03/03 04:54:40;;;;;;;111.03;43.20;;;5.60;99.90;;;;;;5037865;28;20481;-63
2022/03/03 04:57:08;;;;;;;112.57;40.28;;;5.60;99.90;;;;;;5014816;28;20053;-65
2022/03/03 04:59:35;;;;;;;121.30;41.88;;;5.60;99.90;;;;;;5032157;28;20050;-67
2022/03/03 05:02:03;;;;;;;108.60;40.90;;;5.60;99.90;;;;;;5032087;28;20492;-65
2022/03/03 05:04:31;;;;;;;113.53;37.88;;;5.60;99.90;;;;;;5032864;28;20045;-65
2022/03/03 05:06:59;;;;;;;116.30;40.85;;;5.70;99.90;;;;;;5037501;28;20048;-65
2022/03/03 05:09:27;;;;;;;108.82;39.97;;;5.60;99.90;;;;;;5052008;28;20049;-65
2022/03/03 05:11:55;;;;;;;109.60;40.40;;;5.70;99.90;;;;;;5000384;28;20049;-67
2022/03/03 05:14:22;;;;;;;107.50;41.95;;;5.60;99.90;;;;;;5032037;28;20041;-66
2022/03/03 05:16:50;;;;;;;114.13;42.13;;;5.60;99.90;;;;;;5015034;28;20424;-67
2022/03/03 05:19:18;;;;;;;116.78;42.70;;;5.60;99.90;;;;;;5031700;28;20060;-65
2022/03/03 05:21:45;;;;;;;116.03;41.78;;;5.70;99.90;;;;;;5031942;28;20128;-66
2022/03/03 05:24:13;;;;;;;110.93;41.97;;;5.70;99.90;;;;;;5041516;28;20045;-66
2022/03/03 05:26:41;;;;;;;112.93;41.97;;;5.70;99.90;;;;;;5049999;28;20037;-67
2022/03/03 05:29:09;;;;;;;111.07;42.55;;;5.70;99.90;;;;;;5051710;28;20049;-67
2022/03/03 05:31:36;;;;;;;108.75;40.88;;;5.70;99.90;;;;;;5051261;28;20048;-66
2022/03/03 05:34:04;;;;;;;114.18;42.83;;;5.70;99.90;;;;;;5051491;28;20059;-65
2022/03/03 05:36:38;;;;;;;121.97;43.15;;;5.70;99.90;;;;;;5051660;28;20071;-67
2022/03/03 05:39:06;;;;;;;104.88;41.35;;;5.70;99.90;;;;;;5033995;28;20052;-66
2022/03/03 05:41:34;;;;;;;115.70;43.15;;;5.70;99.90;;;;;;5049736;28;20048;-64
2022/03/03 05:44:03;;;;;;;107.97;41.08;;;5.70;99.90;;;;;;5051383;28;20049;-65
2022/03/03 05:46:31;;;;;;;111.30;41.85;;;5.80;99.90;;;;;;5051396;28;20052;-67
2022/03/03 05:48:59;;;;;;;109.25;43.13;;;5.70;99.90;;;;;;5030877;28;20041;-63
2022/03/03 05:51:26;;;;;;;111.57;42.17;;;5.70;99.90;;;;;;5029600;28;20433;-63
2022/03/03 05:53:54;;;;;;;106.95;41.13;;;5.80;99.90;;;;;;5029084;28;20040;-64
2022/03/03 05:56:23;;;;;;;102.95;39.95;;;5.80;99.90;;;;;;5033564;28;20056;-63
2022/03/03 05:58:51;;;;;;;115.53;42.42;;;5.80;99.90;;;;;;5038475;28;20060;-64
2022/03/03 06:01:19;;;;;;;114.65;41.65;;;5.80;99.90;;;;;;5032486;28;20057;-66
2022/03/03 06:03:50;;;;;;;107.20;40.65;;;5.80;99.90;;;;;;5034593;28;20051;-68
2022/03/03 06:06:21;;;;;;;103.65;40.30;;;5.80;99.90;;;;;;5027137;28;20045;-68
2022/03/03 06:09:10;;;;;;;107.53;42.45;;;5.80;99.90;;;;;;5056698;28;20041;-63
2022/03/03 06:12:06;;;;;;;112.32;41.05;;;5.80;99.90;;;;;;5066281;28;20063;-68
2022/03/03 06:14:59;;;;;;;101.07;42.17;;;5.80;99.90;;;;;;5026580;28;20496;-68
2022/03/03 06:17:26;;;;;;;101.90;37.88;;;5.80;99.90;;;;;;5063690;28;20055;-66
2022/03/03 06:19:54;;;;;;;111.63;42.00;;;5.80;99.90;;;;;;5041704;28;20438;-62
2022/03/03 06:22:22;;;;;;;116.55;43.78;;;5.80;99.90;;;;;;5053302;28;20052;-64
2022/03/03 06:24:51;;;;;;;107.63;41.73;;;5.80;99.90;;;;;;5051338;28;20049;-62
2022/03/03 06:27:23;;;;;;;103.38;40.67;;;5.80;99.90;;;;;;5055242;28;20048;-62
2022/03/03 06:29:51;;;;;;;107.03;41.95;;;5.80;99.90;;;;;;5033288;28;20052;-66
2022/03/03 06:32:19;;;;;;;99.72;40.55;;;5.80;99.90;;;;;;5020031;28;20041;-63
2022/03/03 06:34:46;;;;;;;110.75;40.17;;;5.80;99.90;;;;;;5055547;28;20049;-63
2022/03/03 06:37:15;;;;;;;104.28;40.72;;;5.80;99.90;;;;;;5060227;28;20408;-64
2022/03/03 06:39:45;;;;;;;103.25;41.78;;;5.80;99.90;;;;;;5041887;28;20057;-63
2022/03/03 06:42:13;;;;;;;97.15;39.55;;;5.80;99.90;;;;;;5019581;28;20044;-64
2022/03/03 06:44:40;;;;;;;108.53;42.08;;;5.80;99.90;;;;;;5050706;28;20060;-64
2022/03/03 06:47:08;;;;;;;104.50;41.50;;;5.80;99.90;;;;;;5069168;28;20048;-64
2022/03/03 06:49:36;;;;;;;109.38;41.08;;;5.80;99.90;;;;;;5026956;28;20443;-65
2022/03/03 06:52:08;;;;;;;102.32;40.17;;;5.80;99.90;;;;;;5050255;28;20045;-62
2022/03/03 06:54:38;;;;;;;96.03;39.00;;;5.80;99.90;;;;;;5066237;28;20052;-63
2022/03/03 06:57:09;;;;;;;111.60;42.63;;;5.80;99.90;;;;;;5032043;28;20048;-62
2022/03/03 06:59:38;;;;;;;110.75;42.17;;;5.90;99.90;;;;;;5068491;28;20064;-64
2022/03/03 07:02:10;;;;;;;103.85;41.72;;;5.80;99.90;;;;;;5040170;28;20391;-63
2022/03/03 07:04:39;;;;;;;106.03;42.95;;;5.90;99.90;;;;;;5037045;28;20052;-61
2022/03/03 07:07:07;;;;;;;107.53;42.15;;;5.90;99.90;;;;;;5035059;28;20048;-62
2022/03/03 07:10:00;;;;;;;108.03;44.60;;;5.90;99.90;;;;;;5055822;28;20052;-62
2022/03/03 07:12:30;;;;;;;105.95;41.17;;;5.90;99.90;;;;;;5053434;28;20399;-62
2022/03/03 07:14:57;;;;;;;114.82;44.15;;;5.90;99.90;;;;;;5038488;28;20048;-64
2022/03/03 07:17:51;;;;;;;114.05;43.83;;;5.90;99.90;;;;;;5026110;28;20052;-61
2022/03/03 07:20:40;;;;;;;107.72;42.38;;;5.90;99.90;;;;;;5037380;28;20053;-61
2022/03/03 07:23:19;;;;;;;119.85;44.03;;;5.90;99.90;;;;;;5018865;28;20073;-66
2022/03/03 07:25:54;;;;;;;107.55;42.80;;;6.00;99.90;;;;;;5033735;28;20050;-63
2022/03/03 07:28:22;;;;;;;110.00;42.30;;;6.00;99.90;;;;;;5027410;28;20037;-63
2022/03/03 07:30:51;;;;;;;96.53;40.25;;;6.00;99.90;;;;;;5038487;28;20045;-61
2022/03/03 07:33:29;;;;;;;120.53;44.20;;;6.00;99.90;;;;;;5031298;28;20052;-61
2022/03/03 07:35:57;;;;;;;119.63;45.92;;;6.00;99.90;;;;;;5047369;28;20045;-62
2022/03/03 07:38:28;;;;;;;115.60;46.08;;;6.10;99.90;;;;;;5054641;28;20488;-64
2022/03/03 07:40:56;;;;;;;116.07;43.95;;;6.00;99.90;;;;;;5044169;28;20417;-61
2022/03/03 07:43:24;;;;;;;115.63;44.70;;;6.10;99.90;;;;;;5043644;28;20485;-62
2022/03/03 07:45:51;;;;;;;107.32;41.75;;;6.10;99.90;;;;;;5019098;28;20053;-62
2022/03/03 07:48:23;;;;;;;104.93;43.35;;;6.10;99.90;;;;;;5017734;28;20042;-63
2022/03/03 07:50:51;;;;;;;112.15;41.58;;;6.10;99.90;;;;;;5001406;28;20053;-61
2022/03/03 07:53:19;;;;;;;111.10;44.28;;;6.20;99.90;;;;;;5022757;28;20365;-62
2022/03/03 07:55:54;;;;;;;118.07;43.63;;;6.20;99.90;;;;;;5041492;28;20038;-61
2022/03/03 07:58:27;;;;;;;118.15;44.38;;;6.20;99.90;;;;;;5055396;28;20040;-62
2022/03/03 08:00:59;;;;;;;104.78;41.50;;;6.20;99.90;;;;;;5054594;28;20056;-61
2022/03/03 08:03:27;;;;;;;106.57;43.08;;;6.20;99.90;;;;;;5037736;28;20041;-61
2022/03/03 08:05:56;;;;;;;96.70;42.03;;;6.30;99.90;;;;;;5036591;28;20049;-62
2022/03/03 08:08:26;;;;;;;98.80;38.42;;;6.30;99.90;;;;;;5046204;28;20041;-67
2022/03/03 08:10:58;;;;;;;93.28;40.90;;;6.30;99.90;;;;;;5013781;28;20057;-66
2022/03/03 08:13:29;;;;;;;96.45;40.40;;;6.30;99.90;;;;;;5042494;28;20527;-61
2022/03/03 08:15:57;;;;;;;92.45;40.08;;;6.30;99.90;;;;;;5018171;28;20380;-62
2022/03/03 08:18:27;;;;;;;100.15;41.90;;;6.30;99.90;;;;;;5050316;28;20053;-66
2022/03/03 08:20:57;;;;;;;95.38;39.42;;;6.30;99.90;;;;;;5026418;28;20053;-67
2022/03/03 08:23:26;;;;;;;90.95;39.85;;;6.40;99.90;;;;;;5034688;28;20048;-67
2022/03/03 08:25:55;;;;;;;99.30;41.38;;;6.40;99.90;;;;;;5021368;28;20045;-68
2022/03/03 08:28:24;;;;;;;91.37;40.60;;;6.40;99.90;;;;;;5037664;28;20041;-67
2022/03/03 08:30:56;;;;;;;95.55;42.78;;;6.40;99.90;;;;;;5029895;28;20060;-67
2022/03/03 08:33:40;;;;;;;98.53;40.17;;;6.40;99.90;;;;;;5053699;28;20041;-62
2022/03/03 08:36:34;;;;;;;97.57;41.15;;;6.40;99.90;;;;;;5039802;28;20033;-62
2022/03/03 08:39:06;;;;;;;98.38;41.42;;;6.40;99.90;;;;;;5036295;28;20037;-64
2022/03/03 08:41:37;;;;;;;96.95;40.15;;;6.40;99.90;;;;;;5033556;28;20642;-65
2022/03/03 08:44:07;;;;;;;102.00;40.80;;;6.30;99.90;;;;;;5010092;28;20053;-65
2022/03/03 08:46:42;;;;;;;99.03;40.05;;;6.40;99.90;;;;;;5031196;28;20041;-68
2022/03/03 08:49:11;;;;;;;101.40;41.05;;;6.40;99.90;;;;;;5042723;28;20053;-67
2022/03/03 08:51:40;;;;;;;104.22;41.67;;;6.40;99.90;;;;;;5036593;28;20041;-65
2022/03/03 08:54:08;;;;;;;97.27;41.20;;;6.40;99.90;;;;;;5070095;28;20045;-66
2022/03/03 08:56:36;;;;;;;91.07;39.50;;;6.50;99.90;;;;;;5049460;28;20090;-58
2022/03/03 08:59:04;;;;;;;95.20;41.05;;;6.50;99.90;;;;;;4995235;28;20041;-63
2022/03/03 09:01:32;;;;;;;89.28;41.67;;;6.60;99.90;;;;;;5029332;28;20041;-63
2022/03/03 09:04:04;;;;;;;96.22;41.20;;;6.60;99.90;;;;;;5026714;28;20041;-63
2022/03/03 09:06:32;;;;;;;91.95;39.83;;;6.60;99.90;;;;;;5026598;28;20041;-63
2022/03/03 09:09:00;;;;;;;89.03;39.10;;;6.60;99.90;;;;;;5046230;28;20045;-62
2022/03/03 09:11:28;;;;;;;84.43;38.28;;;6.70;99.90;;;;;;5029105;28;20049;-62
2022/03/03 09:13:56;;;;;;;88.22;38.88;;;6.70;99.90;;;;;;5041797;28;20045;-62
2022/03/03 09:16:23;;;;;;;88.13;37.85;;;6.70;99.90;;;;;;5032286;28;20048;-61
2022/03/03 09:18:51;;;;;;;84.57;37.20;;;6.70;99.90;;;;;;5039406;28;20044;-65
2022/03/03 09:21:19;;;;;;;80.78;37.17;;;6.70;99.90;;;;;;5040008;28;20049;-62
2022/03/03 09:23:47;;;;;;;84.57;37.42;;;6.70;99.90;;;;;;5031145;28;20041;-63
2022/03/03 09:26:14;;;;;;;87.38;38.47;;;6.80;99.90;;;;;;5029336;28;20477;-62
2022/03/03 09:28:45;;;;;;;74.38;36.80;;;6.70;99.90;;;;;;5041258;28;20045;-63
2022/03/03 09:31:13;;;;;;;79.28;36.20;;;6.80;99.90;;;;;;5038500;28;20048;-61
2022/03/03 09:33:41;;;;;;;78.63;36.92;;;6.80;99.90;;;;;;5040080;28;20058;-60
2022/03/03 09:36:09;;;;;;;87.63;39.15;;;6.80;99.90;;;;;;5029248;28;20041;-61
2022/03/03 09:38:36;;;;;;;80.43;36.65;;;6.70;99.90;;;;;;5011532;28;20516;-61
2022/03/03 09:41:10;;;;;;;89.40;37.50;;;6.80;99.90;;;;;;5035940;28;20489;-61
2022/03/03 09:43:40;;;;;;;88.38;36.60;;;6.80;99.90;;;;;;5038377;28;20052;-61
2022/03/03 09:46:09;;;;;;;80.53;36.95;;;6.80;99.90;;;;;;5045261;28;20044;-62
2022/03/03 09:48:37;;;;;;;82.57;35.90;;;6.80;99.90;;;;;;5034994;28;20045;-60
2022/03/03 09:51:05;;;;;;;77.53;36.03;;;6.90;99.90;;;;;;5040635;28;20053;-62
2022/03/03 09:53:33;;;;;;;81.03;35.65;;;6.90;99.90;;;;;;5025843;28;20041;-61
2022/03/03 09:56:01;;;;;;;83.88;36.40;;;7.00;99.90;;;;;;5033618;28;20038;-61
2022/03/03 09:58:28;;;;;;;81.13;38.95;;;7.10;99.90;;;;;;5026957;28;20048;-63
2022/03/03 10:00:56;;;;;;;78.55;38.03;;;7.10;99.90;;;;;;5013418;28;20060;-60
2022/03/03 10:03:32;;;;;;;84.35;38.75;;;7.20;99.90;;;;;;5037974;28;20403;-62
2022/03/03 10:06:00;;;;;;;74.05;37.83;;;7.20;99.90;;;;;;5046946;28;20044;-62
2022/03/03 10:08:30;;;;;;;83.90;38.13;;;7.30;99.90;;;;;;5021547;28;20048;-61
2022/03/03 10:11:00;;;;;;;81.37;37.80;;;7.30;99.90;;;;;;5050269;28;20049;-61
2022/03/03 10:13:46;;;;;;;80.72;35.85;;;7.40;99.90;;;;;;5044551;28;20044;-63
2022/03/03 10:16:29;;;;;;;73.78;35.13;;;7.40;99.90;;;;;;5023358;28;20045;-66
2022/03/03 10:19:03;;;;;;;79.38;33.50;;;7.40;99.90;;;;;;5038631;28;20049;-62
2022/03/03 10:21:35;;;;;;;81.95;38.60;;;7.40;99.90;;;;;;5046546;28;20539;-61
2022/03/03 10:24:16;;;;;;;78.85;36.40;;;7.50;99.90;;;;;;5056631;28;20048;-62
2022/03/03 10:26:47;;;;;;;86.43;37.75;;;7.50;99.90;;;;;;5037919;28;20059;-61
2022/03/03 10:29:17;;;;;;;82.88;36.97;;;7.50;99.90;;;;;;5029867;28;20404;-61
2022/03/03 10:31:46;;;;;;;;;;;7.50;99.90;;;;;;5053943;28;20048;-61
2022/03/03 10:34:28;;;;;;;87.45;36.05;;;7.50;99.90;;;;;;5034692;28;19921;-60
2022/03/03 10:37:00;;;;;;;76.35;35.20;;;7.50;99.90;;;;;;5052489;28;20056;-63
2022/03/03 10:39:45;;;;;;;74.70;35.80;;;7.60;99.90;;;;;;5048622;28;20045;-64
2022/03/03 10:42:19;;;;;;;75.95;37.30;;;7.60;99.90;;;;;;5051814;28;20059;-63
2022/03/03 10:44:49;;;;;;;83.65;36.20;;;7.60;99.90;;;;;;5064466;28;20048;-68
2022/03/03 10:47:24;;;;;;;80.35;37.53;;;7.60;99.90;;;;;;5059105;28;20063;-63
2022/03/03 10:49:54;;;;;;;79.15;38.22;;;7.60;99.90;;;;;;5048906;28;20503;-65
2022/03/03 10:52:23;;;;;;;77.07;36.95;;;7.70;99.90;;;;;;5051945;28;20056;-62
2022/03/03 10:54:52;;;;;;;76.45;36.17;;;7.70;99.90;;;;;;5028936;28;20033;-66
2022/03/03 10:57:40;;;;;;;73.83;36.33;;;7.70;99.90;;;;;;5032324;28;20049;-65
2022/03/03 11:00:13;;;;;;;82.85;37.60;;;7.70;99.90;;;;;;5050454;28;20103;-67
2022/03/03 11:02:44;;;;;;;79.70;36.97;;;7.70;99.90;;;;;;5057598;28;20391;-66
2022/03/03 11:05:14;;;;;;;86.75;38.85;;;7.70;99.90;;;;;;5040596;28;20045;-63
2022/03/03 11:07:44;;;;;;;82.50;37.00;;;7.80;99.90;;;;;;5051433;28;20052;-60
2022/03/03 11:10:18;;;;;;;81.97;37.80;;;7.80;99.90;;;;;;5060781;28;20056;-61
2022/03/03 11:12:46;;;;;;;86.90;38.22;;;7.80;99.90;;;;;;5053384;28;20044;-63
2022/03/03 11:15:17;;;;;;;79.40;38.58;;;7.90;99.90;;;;;;5053930;28;20084;-62
2022/03/03 11:17:47;;;;;;;82.10;37.28;;;7.90;99.90;;;;;;5053570;28;20432;-65
2022/03/03 11:20:17;;;;;;;80.43;36.30;;;7.90;99.90;;;;;;5055310;28;20049;-66
2022/03/03 11:22:52;;;;;;;76.80;37.75;;;7.90;99.90;;;;;;5050591;28;20036;-65
2022/03/03 11:25:29;;;;;;;82.45;37.42;;;7.90;99.90;;;;;;5038322;28;20052;-63
2022/03/03 11:28:09;;;;;;;82.40;35.75;;;7.90;99.90;;;;;;5046031;28;20061;-65
2022/03/03 11:30:37;;;;;;;76.78;36.55;;;7.90;99.90;;;;;;5023309;28;20064;-63
2022/03/03 11:33:26;;;;;;;76.75;37.85;;;7.90;99.90;;;;;;5059319;28;20057;-65
2022/03/03 11:36:04;;;;;;;77.55;36.63;;;7.90;99.90;;;;;;5028613;28;20060;-61
2022/03/03 11:38:52;;;;;;;78.93;39.92;;;7.90;99.90;;;;;;5040547;28;20396;-62
2022/03/03 11:41:23;;;;;;;81.50;40.13;;;7.90;99.90;;;;;;5037558;28;20052;-61
2022/03/03 11:44:04;;;;;;;83.15;38.20;;;7.90;99.90;;;;;;5026728;28;20041;-61
2022/03/03 11:46:47;;;;;;;75.13;36.47;;;8.00;99.90;;;;;;5033234;28;20059;-64
2022/03/03 11:49:29;;;;;;;79.50;40.58;;;8.00;99.90;;;;;;5045764;28;20041;-63
2022/03/03 11:52:07;;;;;;;79.45;38.45;;;8.00;99.90;;;;;;5021660;28;20810;-62
2022/03/03 11:54:35;;;;;;;85.07;40.03;;;8.00;99.90;;;;;;5018400;28;20045;-66
2022/03/03 11:57:02;;;;;;;70.75;36.80;;;8.00;99.90;;;;;;5031001;28;20410;-67
2022/03/03 11:59:41;;;;;;;73.93;36.65;;;8.00;99.90;;;;;;5052036;28;20412;-61
2022/03/03 12:02:09;;;;;;;74.05;38.08;;;8.10;99.90;;;;;;5042342;28;20049;-62
2022/03/03 12:04:38;;;;;;;80.47;38.67;;;8.00;99.90;;;;;;5033609;28;20053;-62
2022/03/03 12:07:26;;;;;;;79.95;40.40;;;8.10;99.90;;;;;;5038952;28;21160;-63
2022/03/03 12:09:56;;;;;;;71.03;36.13;;;8.10;99.90;;;;;;5041458;28;20063;-65
2022/03/03 12:12:29;;;;;;;74.38;37.47;;;8.10;99.90;;;;;;5031478;28;20052;-62
2022/03/03 12:15:01;;;;;;;83.00;38.05;;;8.20;99.90;;;;;;5023137;28;20052;-63
2022/03/03 12:17:42;;;;;;;81.35;37.22;;;8.20;99.90;;;;;;5017564;28;20053;-62
2022/03/03 12:20:29;;;;;;;85.72;40.05;;;8.20;99.90;;;;;;5051381;28;20045;-63
2022/03/03 12:23:19;;;;;;;82.53;38.38;;;8.20;99.90;;;;;;5055796;28;20060;-62
2022/03/03 12:25:50;;;;;;;77.28;38.95;;;8.20;99.90;;;;;;5048486;28;20048;-63
2022/03/03 12:28:22;;;;;;;86.57;39.20;;;8.20;99.90;;;;;;5051261;28;20052;-64
2022/03/03 12:30:53;;;;;;;83.95;38.03;;;8.30;99.90;;;;;;5068051;28;20048;-62
2022/03/03 12:33:31;;;;;;;84.25;40.85;;;8.30;99.90;;;;;;5066494;28;20483;-62
2022/03/03 12:36:04;;;;;;;81.30;40.92;;;8.30;99.90;;;;;;5029365;28;20037;-62
2022/03/03 12:38:36;;;;;;;111.68;53.30;;;8.40;99.90;;;;;;5033602;28;20056;-63
2022/03/03 12:41:04;;;;;;;83.85;40.20;;;8.40;99.90;;;;;;5051497;28;20048;-62
2022/03/03 12:43:40;;;;;;;87.90;39.85;;;8.50;99.90;;;;;;5068911;28;20400;-64
2022/03/03 12:46:08;;;;;;;77.72;37.10;;;8.50;99.90;;;;;;5066983;28;20051;-62
2022/03/03 12:48:36;;;;;;;82.78;38.22;;;8.60;99.90;;;;;;5042592;28;20058;-63